sensor_id;sensor_type;location;lat;lon;timestamp;P1;durP1;ratioP1;P2;durP2;ratioP2
26963;SDS011;14521;48.148;-1.656;2022-08-19T00:01:11;1.10;;;1.00;;
26963;SDS011;14521;48.148;-1.656;2022-08-19T00:04:35;1.37;;;0.93;;
26963;SDS011;14521;48.148;-1.656;2022-08-19T00:07:58;1.20;;;1.10;;
26963;SDS011;14521;48.148;-1.656;2022-08-19T00:11:21;4.25;;;1.42;;
26963;SDS011;14521;48.148;-1.656;2022-08-19T00:14:46;1.20;;;0.90;;
26963;SDS011;14521;48.148;-1.656;2022-08-19T00:18:08;1.27;;;1.17;;
26963;SDS011;14521;48.148;-1.656;2022-08-19T00:21:30;1.67;;;0.90;;
26963;SDS011;14521;48.148;-1.656;2022-08-19T00:24:53;3.35;;;0.85;;
26963;SDS011;14521;48.148;-1.656;2022-08-19T00:28:15;1.30;;;1.13;;
26963;SDS011;14521;48.148;-1.656;2022-08-19T00:31:38;0.70;;;0.70;;
26963;SDS011;14521;48.148;-1.656;2022-08-19T00:35:00;1.17;;;1.00;;
26963;SDS011;14521;48.148;-1.656;2022-08-19T00:38:23;2.15;;;0.90;;
26963;SDS011;14521;48.148;-1.656;2022-08-19T00:41:58;1.00;;;0.95;;
26963;SDS011;14521;48.148;-1.656;2022-08-19T00:45:22;0.88;;;0.60;;
26963;SDS011;14521;48.148;-1.656;2022-08-19T00:48:46;0.50;;;0.50;;
26963;SDS011;14521;48.148;-1.656;2022-08-19T00:52:11;1.20;;;0.85;;
26963;SDS011;14521;48.148;-1.656;2022-08-19T00:55:36;1.83;;;0.60;;
26963;SDS011;14521;48.148;-1.656;2022-08-19T00:59:01;0.70;;;0.70;;
26963;SDS011;14521;48.148;-1.656;2022-08-19T01:02:30;0.90;;;0.90;;
26963;SDS011;14521;48.148;-1.656;2022-08-19T01:05:54;6.80;;;0.60;;
26963;SDS011;14521;48.148;-1.656;2022-08-19T01:09:17;2.88;;;0.70;;
26963;SDS011;14521;48.148;-1.656;2022-08-19T01:12:40;0.52;;;0.50;;
26963;SDS011;14521;48.148;-1.656;2022-08-19T01:16:04;0.80;;;0.60;;
26963;SDS011;14521;48.148;-1.656;2022-08-19T01:19:36;8.13;;;2.08;;
26963;SDS011;14521;48.148;-1.656;2022-08-19T01:23:05;3.85;;;0.60;;
26963;SDS011;14521;48.148;-1.656;2022-08-19T01:26:27;1.15;;;0.60;;
26963;SDS011;14521;48.148;-1.656;2022-08-19T01:29:51;0.87;;;0.50;;
26963;SDS011;14521;48.148;-1.656;2022-08-19T01:33:14;5.82;;;0.63;;
26963;SDS011;14521;48.148;-1.656;2022-08-19T01:36:37;1.13;;;0.65;;
26963;SDS011;14521;48.148;-1.656;2022-08-19T01:40:03;1.70;;;0.60;;
26963;SDS011;14521;48.148;-1.656;2022-08-19T01:43:30;1.40;;;0.60;;
26963;SDS011;14521;48.148;-1.656;2022-08-19T01:46:52;2.47;;;0.43;;
26963;SDS011;14521;48.148;-1.656;2022-08-19T01:50:14;0.63;;;0.45;;
26963;SDS011;14521;48.148;-1.656;2022-08-19T01:53:37;0.50;;;0.47;;
26963;SDS011;14521;48.148;-1.656;2022-08-19T01:57:01;0.65;;;0.60;;
26963;SDS011;14521;48.148;-1.656;2022-08-19T02:00:28;2.00;;;0.52;;
26963;SDS011;14521;48.148;-1.656;2022-08-19T02:03:52;0.80;;;0.47;;
26963;SDS011;14521;48.148;-1.656;2022-08-19T02:07:20;0.80;;;0.60;;
26963;SDS011;14521;48.148;-1.656;2022-08-19T02:10:43;2.28;;;0.70;;
26963;SDS011;14521;48.148;-1.656;2022-08-19T02:14:06;1.23;;;0.52;;
26963;SDS011;14521;48.148;-1.656;2022-08-19T02:17:29;1.88;;;0.82;;
26963;SDS011;14521;48.148;-1.656;2022-08-19T02:20:52;0.93;;;0.50;;
26963;SDS011;14521;48.148;-1.656;2022-08-19T02:24:14;1.75;;;0.60;;
26963;SDS011;14521;48.148;-1.656;2022-08-19T02:27:37;3.47;;;0.68;;
26963;SDS011;14521;48.148;-1.656;2022-08-19T02:31:00;0.73;;;0.70;;
26963;SDS011;14521;48.148;-1.656;2022-08-19T02:34:23;1.27;;;0.60;;
26963;SDS011;14521;48.148;-1.656;2022-08-19T02:37:46;0.63;;;0.63;;
26963;SDS011;14521;48.148;-1.656;2022-08-19T02:41:29;0.80;;;0.80;;
26963;SDS011;14521;48.148;-1.656;2022-08-19T02:44:54;1.80;;;0.65;;
26963;SDS011;14521;48.148;-1.656;2022-08-19T02:48:18;2.10;;;0.67;;
26963;SDS011;14521;48.148;-1.656;2022-08-19T02:51:43;0.82;;;0.70;;
26963;SDS011;14521;48.148;-1.656;2022-08-19T02:55:07;2.43;;;0.50;;
26963;SDS011;14521;48.148;-1.656;2022-08-19T02:58:30;2.70;;;0.70;;
26963;SDS011;14521;48.148;-1.656;2022-08-19T03:01:52;1.02;;;0.60;;
26963;SDS011;14521;48.148;-1.656;2022-08-19T03:05:14;1.77;;;0.57;;
26963;SDS011;14521;48.148;-1.656;2022-08-19T03:08:37;3.15;;;0.60;;
26963;SDS011;14521;48.148;-1.656;2022-08-19T03:11:59;0.60;;;0.60;;
26963;SDS011;14521;48.148;-1.656;2022-08-19T03:15:22;0.60;;;0.40;;
26963;SDS011;14521;48.148;-1.656;2022-08-19T03:18:44;3.85;;;0.93;;
26963;SDS011;14521;48.148;-1.656;2022-08-19T03:22:07;0.70;;;0.43;;
26963;SDS011;14521;48.148;-1.656;2022-08-19T03:25:29;0.55;;;0.55;;
26963;SDS011;14521;48.148;-1.656;2022-08-19T03:28:51;1.30;;;0.50;;
26963;SDS011;14521;48.148;-1.656;2022-08-19T03:32:19;0.80;;;0.50;;
26963;SDS011;14521;48.148;-1.656;2022-08-19T03:36:00;2.37;;;0.50;;
26963;SDS011;14521;48.148;-1.656;2022-08-19T03:39:38;1.05;;;0.40;;
26963;SDS011;14521;48.148;-1.656;2022-08-19T03:43:01;0.90;;;0.60;;
26963;SDS011;14521;48.148;-1.656;2022-08-19T03:46:26;0.52;;;0.50;;
26963;SDS011;14521;48.148;-1.656;2022-08-19T03:49:51;0.95;;;0.47;;
26963;SDS011;14521;48.148;-1.656;2022-08-19T03:53:13;0.63;;;0.40;;
26963;SDS011;14521;48.148;-1.656;2022-08-19T03:56:37;0.60;;;0.60;;
26963;SDS011;14521;48.148;-1.656;2022-08-19T04:00:00;1.53;;;0.50;;
26963;SDS011;14521;48.148;-1.656;2022-08-19T04:03:34;1.20;;;0.40;;
26963;SDS011;14521;48.148;-1.656;2022-08-19T04:06:57;1.33;;;0.70;;
26963;SDS011;14521;48.148;-1.656;2022-08-19T04:10:20;1.27;;;0.50;;
26963;SDS011;14521;48.148;-1.656;2022-08-19T04:13:42;1.05;;;0.50;;
26963;SDS011;14521;48.148;-1.656;2022-08-19T04:20:29;0.77;;;0.60;;
26963;SDS011;14521;48.148;-1.656;2022-08-19T04:23:51;1.23;;;0.50;;
26963;SDS011;14521;48.148;-1.656;2022-08-19T04:27:16;0.60;;;0.60;;
26963;SDS011;14521;48.148;-1.656;2022-08-19T04:30:43;0.80;;;0.65;;
26963;SDS011;14521;48.148;-1.656;2022-08-19T04:34:09;2.50;;;0.52;;
26963;SDS011;14521;48.148;-1.656;2022-08-19T04:37:34;0.35;;;0.35;;
26963;SDS011;14521;48.148;-1.656;2022-08-19T04:40:56;1.85;;;0.95;;
26963;SDS011;14521;48.148;-1.656;2022-08-19T04:44:37;2.00;;;0.52;;
26963;SDS011;14521;48.148;-1.656;2022-08-19T04:48:07;0.50;;;0.40;;
26963;SDS011;14521;48.148;-1.656;2022-08-19T04:51:48;0.77;;;0.45;;
26963;SDS011;14521;48.148;-1.656;2022-08-19T04:55:11;0.55;;;0.52;;
26963;SDS011;14521;48.148;-1.656;2022-08-19T04:58:35;0.50;;;0.50;;
26963;SDS011;14521;48.148;-1.656;2022-08-19T05:01:58;0.90;;;0.40;;
26963;SDS011;14521;48.148;-1.656;2022-08-19T05:05:20;0.63;;;0.43;;
26963;SDS011;14521;48.148;-1.656;2022-08-19T05:08:43;0.88;;;0.80;;
26963;SDS011;14521;48.148;-1.656;2022-08-19T05:12:05;0.70;;;0.70;;
26963;SDS011;14521;48.148;-1.656;2022-08-19T05:15:28;0.88;;;0.82;;
26963;SDS011;14521;48.148;-1.656;2022-08-19T05:18:50;2.17;;;0.68;;
26963;SDS011;14521;48.148;-1.656;2022-08-19T05:22:31;0.75;;;0.75;;
26963;SDS011;14521;48.148;-1.656;2022-08-19T05:25:54;1.02;;;0.50;;
26963;SDS011;14521;48.148;-1.656;2022-08-19T05:29:18;1.30;;;1.00;;
26963;SDS011;14521;48.148;-1.656;2022-08-19T05:32:43;1.70;;;1.02;;
26963;SDS011;14521;48.148;-1.656;2022-08-19T05:36:05;1.00;;;0.70;;
26963;SDS011;14521;48.148;-1.656;2022-08-19T05:39:29;1.05;;;0.77;;
26963;SDS011;14521;48.148;-1.656;2022-08-19T05:42:54;1.80;;;1.70;;
26963;SDS011;14521;48.148;-1.656;2022-08-19T05:46:17;0.93;;;0.88;;
26963;SDS011;14521;48.148;-1.656;2022-08-19T05:49:48;0.88;;;0.63;;
26963;SDS011;14521;48.148;-1.656;2022-08-19T05:56:37;1.00;;;0.75;;
26963;SDS011;14521;48.148;-1.656;2022-08-19T06:00:00;5.13;;;0.80;;
26963;SDS011;14521;48.148;-1.656;2022-08-19T06:03:32;0.70;;;0.70;;
26963;SDS011;14521;48.148;-1.656;2022-08-19T06:06:55;0.60;;;0.60;;
26963;SDS011;14521;48.148;-1.656;2022-08-19T06:10:17;2.30;;;0.88;;
26963;SDS011;14521;48.148;-1.656;2022-08-19T06:13:40;1.30;;;0.80;;
26963;SDS011;14521;48.148;-1.656;2022-08-19T06:17:02;1.45;;;0.60;;
26963;SDS011;14521;48.148;-1.656;2022-08-19T06:20:28;1.13;;;1.13;;
26963;SDS011;14521;48.148;-1.656;2022-08-19T06:24:12;0.82;;;0.70;;
26963;SDS011;14521;48.148;-1.656;2022-08-19T06:27:36;4.07;;;1.00;;
26963;SDS011;14521;48.148;-1.656;2022-08-19T06:31:15;1.35;;;0.82;;
26963;SDS011;14521;48.148;-1.656;2022-08-19T06:34:38;1.55;;;0.90;;
26963;SDS011;14521;48.148;-1.656;2022-08-19T06:38:01;2.58;;;0.85;;
26963;SDS011;14521;48.148;-1.656;2022-08-19T06:41:25;1.30;;;1.05;;
26963;SDS011;14521;48.148;-1.656;2022-08-19T06:44:48;4.32;;;1.23;;
26963;SDS011;14521;48.148;-1.656;2022-08-19T06:48:14;1.92;;;1.15;;
26963;SDS011;14521;48.148;-1.656;2022-08-19T06:51:39;3.20;;;0.85;;
26963;SDS011;14521;48.148;-1.656;2022-08-19T06:55:06;0.98;;;0.98;;
26963;SDS011;14521;48.148;-1.656;2022-08-19T06:58:29;1.08;;;0.98;;
26963;SDS011;14521;48.148;-1.656;2022-08-19T07:01:55;8.25;;;1.10;;
26963;SDS011;14521;48.148;-1.656;2022-08-19T07:05:18;1.85;;;1.08;;
26963;SDS011;14521;48.148;-1.656;2022-08-19T07:08:41;0.90;;;0.90;;
26963;SDS011;14521;48.148;-1.656;2022-08-19T07:12:05;2.38;;;1.23;;
26963;SDS011;14521;48.148;-1.656;2022-08-19T07:18:52;3.05;;;1.05;;
26963;SDS011;14521;48.148;-1.656;2022-08-19T07:22:14;1.20;;;1.10;;
26963;SDS011;14521;48.148;-1.656;2022-08-19T07:25:38;4.55;;;1.30;;
26963;SDS011;14521;48.148;-1.656;2022-08-19T07:29:01;1.98;;;1.17;;
26963;SDS011;14521;48.148;-1.656;2022-08-19T07:32:24;2.38;;;1.10;;
26963;SDS011;14521;48.148;-1.656;2022-08-19T07:39:13;2.50;;;1.30;;
26963;SDS011;14521;48.148;-1.656;2022-08-19T07:42:38;1.13;;;0.90;;
26963;SDS011;14521;48.148;-1.656;2022-08-19T07:46:00;1.58;;;1.10;;
26963;SDS011;14521;48.148;-1.656;2022-08-19T07:49:23;1.73;;;1.20;;
26963;SDS011;14521;48.148;-1.656;2022-08-19T07:52:46;5.15;;;1.10;;
26963;SDS011;14521;48.148;-1.656;2022-08-19T07:59:36;1.38;;;1.00;;
26963;SDS011;14521;48.148;-1.656;2022-08-19T08:02:59;2.85;;;1.20;;
26963;SDS011;14521;48.148;-1.656;2022-08-19T08:06:21;2.78;;;1.30;;
26963;SDS011;14521;48.148;-1.656;2022-08-19T08:10:04;2.30;;;1.23;;
26963;SDS011;14521;48.148;-1.656;2022-08-19T08:13:41;5.18;;;1.40;;
26963;SDS011;14521;48.148;-1.656;2022-08-19T08:17:05;3.42;;;1.75;;
26963;SDS011;14521;48.148;-1.656;2022-08-19T08:20:31;3.65;;;1.70;;
26963;SDS011;14521;48.148;-1.656;2022-08-19T08:23:54;2.55;;;1.40;;
26963;SDS011;14521;48.148;-1.656;2022-08-19T08:27:17;2.90;;;1.70;;
26963;SDS011;14521;48.148;-1.656;2022-08-19T08:30:47;2.08;;;1.60;;
26963;SDS011;14521;48.148;-1.656;2022-08-19T08:34:11;3.55;;;1.40;;
26963;SDS011;14521;48.148;-1.656;2022-08-19T08:37:35;2.10;;;1.27;;
26963;SDS011;14521;48.148;-1.656;2022-08-19T08:41:00;1.58;;;1.35;;
26963;SDS011;14521;48.148;-1.656;2022-08-19T08:47:57;4.90;;;1.30;;
26963;SDS011;14521;48.148;-1.656;2022-08-19T08:51:44;1.77;;;1.23;;
26963;SDS011;14521;48.148;-1.656;2022-08-19T08:55:22;2.88;;;1.08;;
26963;SDS011;14521;48.148;-1.656;2022-08-19T08:58:49;2.45;;;1.27;;
26963;SDS011;14521;48.148;-1.656;2022-08-19T09:02:19;3.35;;;1.00;;
26963;SDS011;14521;48.148;-1.656;2022-08-19T09:05:45;2.55;;;1.10;;
26963;SDS011;14521;48.148;-1.656;2022-08-19T09:09:32;1.17;;;1.00;;
26963;SDS011;14521;48.148;-1.656;2022-08-19T09:16:58;0.95;;;0.85;;
26963;SDS011;14521;48.148;-1.656;2022-08-19T09:20:22;3.55;;;1.30;;
26963;SDS011;14521;48.148;-1.656;2022-08-19T09:23:47;3.20;;;1.20;;
26963;SDS011;14521;48.148;-1.656;2022-08-19T09:27:11;5.47;;;1.27;;
26963;SDS011;14521;48.148;-1.656;2022-08-19T09:30:40;2.25;;;1.08;;
26963;SDS011;14521;48.148;-1.656;2022-08-19T09:34:03;1.35;;;1.08;;
26963;SDS011;14521;48.148;-1.656;2022-08-19T09:37:26;1.85;;;1.20;;
26963;SDS011;14521;48.148;-1.656;2022-08-19T09:40:49;2.50;;;1.20;;
26963;SDS011;14521;48.148;-1.656;2022-08-19T09:44:12;2.10;;;1.40;;
26963;SDS011;14521;48.148;-1.656;2022-08-19T09:47:34;2.35;;;1.10;;
26963;SDS011;14521;48.148;-1.656;2022-08-19T09:51:23;1.25;;;0.93;;
26963;SDS011;14521;48.148;-1.656;2022-08-19T09:54:45;3.17;;;1.02;;
26963;SDS011;14521;48.148;-1.656;2022-08-19T09:58:12;3.83;;;1.20;;
26963;SDS011;14521;48.148;-1.656;2022-08-19T10:01:35;1.17;;;1.08;;
26963;SDS011;14521;48.148;-1.656;2022-08-19T10:04:57;3.80;;;1.10;;
26963;SDS011;14521;48.148;-1.656;2022-08-19T10:08:47;3.92;;;1.10;;
26963;SDS011;14521;48.148;-1.656;2022-08-19T10:12:11;3.50;;;1.00;;
26963;SDS011;14521;48.148;-1.656;2022-08-19T10:15:38;2.05;;;0.85;;
26963;SDS011;14521;48.148;-1.656;2022-08-19T10:19:09;1.73;;;0.80;;
26963;SDS011;14521;48.148;-1.656;2022-08-19T10:22:32;2.17;;;1.00;;
26963;SDS011;14521;48.148;-1.656;2022-08-19T10:25:59;1.55;;;0.93;;
26963;SDS011;14521;48.148;-1.656;2022-08-19T10:29:21;1.27;;;0.77;;
26963;SDS011;14521;48.148;-1.656;2022-08-19T10:32:53;1.20;;;0.77;;
26963;SDS011;14521;48.148;-1.656;2022-08-19T10:36:17;1.20;;;0.75;;
26963;SDS011;14521;48.148;-1.656;2022-08-19T10:39:41;1.75;;;0.80;;
26963;SDS011;14521;48.148;-1.656;2022-08-19T10:43:04;5.05;;;1.75;;
26963;SDS011;14521;48.148;-1.656;2022-08-19T10:46:27;2.58;;;0.80;;
26963;SDS011;14521;48.148;-1.656;2022-08-19T10:49:53;2.45;;;1.00;;
26963;SDS011;14521;48.148;-1.656;2022-08-19T10:53:35;1.45;;;0.63;;
26963;SDS011;14521;48.148;-1.656;2022-08-19T10:56:57;2.30;;;0.80;;
26963;SDS011;14521;48.148;-1.656;2022-08-19T11:00:20;2.45;;;0.93;;
26963;SDS011;14521;48.148;-1.656;2022-08-19T11:03:44;2.63;;;0.90;;
26963;SDS011;14521;48.148;-1.656;2022-08-19T11:07:07;3.67;;;0.75;;
26963;SDS011;14521;48.148;-1.656;2022-08-19T11:10:30;0.90;;;0.80;;
26963;SDS011;14521;48.148;-1.656;2022-08-19T11:13:52;1.45;;;0.50;;
26963;SDS011;14521;48.148;-1.656;2022-08-19T11:17:14;2.53;;;1.00;;
26963;SDS011;14521;48.148;-1.656;2022-08-19T11:20:36;2.40;;;0.60;;
26963;SDS011;14521;48.148;-1.656;2022-08-19T11:24:00;1.08;;;0.70;;
26963;SDS011;14521;48.148;-1.656;2022-08-19T11:27:24;1.80;;;0.45;;
26963;SDS011;14521;48.148;-1.656;2022-08-19T11:30:47;2.95;;;0.68;;
26963;SDS011;14521;48.148;-1.656;2022-08-19T11:34:10;0.77;;;0.70;;
26963;SDS011;14521;48.148;-1.656;2022-08-19T11:37:35;0.88;;;0.60;;
26963;SDS011;14521;48.148;-1.656;2022-08-19T11:41:00;1.45;;;0.57;;
26963;SDS011;14521;48.148;-1.656;2022-08-19T11:44:26;0.68;;;0.50;;
26963;SDS011;14521;48.148;-1.656;2022-08-19T11:47:51;1.70;;;0.40;;
26963;SDS011;14521;48.148;-1.656;2022-08-19T11:51:16;1.58;;;0.52;;
26963;SDS011;14521;48.148;-1.656;2022-08-19T11:54:40;0.57;;;0.35;;
26963;SDS011;14521;48.148;-1.656;2022-08-19T11:58:03;0.45;;;0.45;;
26963;SDS011;14521;48.148;-1.656;2022-08-19T12:01:39;1.80;;;0.40;;
26963;SDS011;14521;48.148;-1.656;2022-08-19T12:05:04;2.53;;;0.70;;
26963;SDS011;14521;48.148;-1.656;2022-08-19T12:08:33;2.17;;;0.80;;
26963;SDS011;14521;48.148;-1.656;2022-08-19T12:11:55;3.45;;;0.68;;
26963;SDS011;14521;48.148;-1.656;2022-08-19T12:15:17;1.83;;;0.40;;
26963;SDS011;14521;48.148;-1.656;2022-08-19T12:18:40;1.52;;;0.30;;
26963;SDS011;14521;48.148;-1.656;2022-08-19T12:22:05;3.67;;;0.43;;
26963;SDS011;14521;48.148;-1.656;2022-08-19T12:25:29;0.77;;;0.30;;
26963;SDS011;14521;48.148;-1.656;2022-08-19T12:28:52;0.73;;;0.28;;
26963;SDS011;14521;48.148;-1.656;2022-08-19T12:32:15;2.50;;;0.40;;
26963;SDS011;14521;48.148;-1.656;2022-08-19T12:35:41;1.58;;;0.20;;
26963;SDS011;14521;48.148;-1.656;2022-08-19T12:39:06;0.95;;;0.47;;
26963;SDS011;14521;48.148;-1.656;2022-08-19T12:42:31;0.15;;;0.08;;
26963;SDS011;14521;48.148;-1.656;2022-08-19T12:45:54;0.88;;;0.30;;
26963;SDS011;14521;48.148;-1.656;2022-08-19T12:49:17;0.95;;;0.30;;
26963;SDS011;14521;48.148;-1.656;2022-08-19T12:52:59;0.88;;;0.30;;
26963;SDS011;14521;48.148;-1.656;2022-08-19T12:56:22;0.45;;;0.20;;
26963;SDS011;14521;48.148;-1.656;2022-08-19T12:59:44;0.63;;;0.30;;
26963;SDS011;14521;48.148;-1.656;2022-08-19T13:03:07;0.40;;;0.25;;
26963;SDS011;14521;48.148;-1.656;2022-08-19T13:06:29;0.93;;;0.20;;
26963;SDS011;14521;48.148;-1.656;2022-08-19T13:09:52;0.50;;;0.30;;
26963;SDS011;14521;48.148;-1.656;2022-08-19T13:13:15;0.20;;;0.20;;
26963;SDS011;14521;48.148;-1.656;2022-08-19T13:16:37;0.75;;;0.30;;
26963;SDS011;14521;48.148;-1.656;2022-08-19T13:19:59;0.73;;;0.28;;
26963;SDS011;14521;48.148;-1.656;2022-08-19T13:23:21;0.25;;;0.20;;
26963;SDS011;14521;48.148;-1.656;2022-08-19T13:26:44;0.60;;;0.40;;
26963;SDS011;14521;48.148;-1.656;2022-08-19T13:30:07;4.20;;;0.30;;
26963;SDS011;14521;48.148;-1.656;2022-08-19T13:33:52;0.68;;;0.20;;
26963;SDS011;14521;48.148;-1.656;2022-08-19T13:37:14;0.52;;;0.30;;
26963;SDS011;14521;48.148;-1.656;2022-08-19T13:40:36;1.77;;;0.25;;
26963;SDS011;14521;48.148;-1.656;2022-08-19T13:44:02;1.63;;;0.85;;
26963;SDS011;14521;48.148;-1.656;2022-08-19T13:47:25;0.70;;;0.35;;
26963;SDS011;14521;48.148;-1.656;2022-08-19T13:50:47;1.20;;;0.20;;
26963;SDS011;14521;48.148;-1.656;2022-08-19T13:54:10;0.20;;;0.05;;
26963;SDS011;14521;48.148;-1.656;2022-08-19T13:57:33;0.20;;;0.10;;
26963;SDS011;14521;48.148;-1.656;2022-08-19T14:00:56;0.22;;;0.00;;
26963;SDS011;14521;48.148;-1.656;2022-08-19T14:04:20;0.60;;;0.10;;
26963;SDS011;14521;48.148;-1.656;2022-08-19T14:07:43;1.05;;;0.08;;
26963;SDS011;14521;48.148;-1.656;2022-08-19T14:11:05;1.13;;;0.00;;
26963;SDS011;14521;48.148;-1.656;2022-08-19T14:14:27;0.63;;;0.00;;
26963;SDS011;14521;48.148;-1.656;2022-08-19T14:17:50;0.43;;;0.10;;
26963;SDS011;14521;48.148;-1.656;2022-08-19T14:21:14;6.35;;;0.10;;
26963;SDS011;14521;48.148;-1.656;2022-08-19T14:24:39;0.40;;;0.00;;
26963;SDS011;14521;48.148;-1.656;2022-08-19T14:28:08;1.55;;;0.00;;
26963;SDS011;14521;48.148;-1.656;2022-08-19T14:31:30;1.63;;;0.10;;
26963;SDS011;14521;48.148;-1.656;2022-08-19T14:34:53;0.10;;;0.00;;
26963;SDS011;14521;48.148;-1.656;2022-08-19T14:38:19;0.10;;;0.00;;
26963;SDS011;14521;48.148;-1.656;2022-08-19T14:41:52;0.82;;;0.10;;
26963;SDS011;14521;48.148;-1.656;2022-08-19T14:45:14;0.47;;;0.10;;
26963;SDS011;14521;48.148;-1.656;2022-08-19T14:48:36;0.00;;;0.00;;
26963;SDS011;14521;48.148;-1.656;2022-08-19T14:52:02;0.10;;;0.10;;
26963;SDS011;14521;48.148;-1.656;2022-08-19T14:55:25;0.43;;;0.10;;
26963;SDS011;14521;48.148;-1.656;2022-08-19T14:58:48;0.30;;;0.10;;
26963;SDS011;14521;48.148;-1.656;2022-08-19T15:02:13;2.80;;;0.10;;
26963;SDS011;14521;48.148;-1.656;2022-08-19T15:05:56;1.75;;;0.25;;
26963;SDS011;14521;48.148;-1.656;2022-08-19T15:09:19;3.28;;;0.32;;
26963;SDS011;14521;48.148;-1.656;2022-08-19T15:12:42;0.90;;;0.22;;
26963;SDS011;14521;48.148;-1.656;2022-08-19T15:16:04;0.30;;;0.03;;
26963;SDS011;14521;48.148;-1.656;2022-08-19T15:19:38;6.53;;;0.40;;
26963;SDS011;14521;48.148;-1.656;2022-08-19T15:23:01;2.65;;;0.40;;
26963;SDS011;14521;48.148;-1.656;2022-08-19T15:26:23;2.35;;;0.30;;
26963;SDS011;14521;48.148;-1.656;2022-08-19T15:29:49;3.60;;;0.45;;
26963;SDS011;14521;48.148;-1.656;2022-08-19T15:33:17;5.00;;;0.40;;
26963;SDS011;14521;48.148;-1.656;2022-08-19T15:36:41;2.38;;;0.52;;
26963;SDS011;14521;48.148;-1.656;2022-08-19T15:40:04;1.48;;;0.32;;
26963;SDS011;14521;48.148;-1.656;2022-08-19T15:43:29;2.05;;;0.47;;
26963;SDS011;14521;48.148;-1.656;2022-08-19T15:46:52;2.58;;;0.40;;
26963;SDS011;14521;48.148;-1.656;2022-08-19T15:50:17;4.07;;;0.40;;
26963;SDS011;14521;48.148;-1.656;2022-08-19T15:53:41;3.40;;;0.50;;
26963;SDS011;14521;48.148;-1.656;2022-08-19T15:57:04;3.33;;;0.60;;
26963;SDS011;14521;48.148;-1.656;2022-08-19T16:00:45;4.20;;;0.63;;
26963;SDS011;14521;48.148;-1.656;2022-08-19T16:04:33;1.85;;;0.45;;
26963;SDS011;14521;48.148;-1.656;2022-08-19T16:08:14;2.33;;;0.40;;
26963;SDS011;14521;48.148;-1.656;2022-08-19T16:11:36;3.38;;;0.60;;
26963;SDS011;14521;48.148;-1.656;2022-08-19T16:15:00;4.10;;;1.20;;
26963;SDS011;14521;48.148;-1.656;2022-08-19T16:18:22;2.40;;;0.70;;
26963;SDS011;14521;48.148;-1.656;2022-08-19T16:21:47;8.70;;;0.70;;
26963;SDS011;14521;48.148;-1.656;2022-08-19T16:25:11;2.08;;;0.50;;
26963;SDS011;14521;48.148;-1.656;2022-08-19T16:28:34;3.58;;;0.70;;
26963;SDS011;14521;48.148;-1.656;2022-08-19T16:31:56;2.30;;;0.60;;
26963;SDS011;14521;48.148;-1.656;2022-08-19T16:35:18;5.82;;;0.90;;
26963;SDS011;14521;48.148;-1.656;2022-08-19T16:38:42;3.58;;;0.70;;
26963;SDS011;14521;48.148;-1.656;2022-08-19T16:42:09;4.72;;;1.02;;
26963;SDS011;14521;48.148;-1.656;2022-08-19T16:45:32;4.35;;;0.82;;
26963;SDS011;14521;48.148;-1.656;2022-08-19T16:48:54;4.82;;;1.02;;
26963;SDS011;14521;48.148;-1.656;2022-08-19T16:52:17;5.05;;;1.00;;
26963;SDS011;14521;48.148;-1.656;2022-08-19T16:55:40;3.30;;;0.80;;
26963;SDS011;14521;48.148;-1.656;2022-08-19T16:59:02;7.57;;;0.90;;
26963;SDS011;14521;48.148;-1.656;2022-08-19T17:02:25;3.72;;;0.68;;
26963;SDS011;14521;48.148;-1.656;2022-08-19T17:05:52;4.25;;;0.63;;
26963;SDS011;14521;48.148;-1.656;2022-08-19T17:09:15;6.03;;;0.77;;
26963;SDS011;14521;48.148;-1.656;2022-08-19T17:12:46;3.47;;;0.88;;
26963;SDS011;14521;48.148;-1.656;2022-08-19T17:16:09;5.30;;;1.00;;
26963;SDS011;14521;48.148;-1.656;2022-08-19T17:19:31;5.63;;;1.13;;
26963;SDS011;14521;48.148;-1.656;2022-08-19T17:22:53;6.38;;;1.00;;
26963;SDS011;14521;48.148;-1.656;2022-08-19T17:26:17;4.50;;;1.25;;
26963;SDS011;14521;48.148;-1.656;2022-08-19T17:29:39;7.22;;;0.95;;
26963;SDS011;14521;48.148;-1.656;2022-08-19T17:33:07;3.78;;;0.93;;
26963;SDS011;14521;48.148;-1.656;2022-08-19T17:36:31;9.40;;;1.20;;
26963;SDS011;14521;48.148;-1.656;2022-08-19T17:39:54;6.80;;;0.97;;
26963;SDS011;14521;48.148;-1.656;2022-08-19T17:43:17;5.82;;;0.73;;
26963;SDS011;14521;48.148;-1.656;2022-08-19T17:46:55;4.50;;;0.73;;
26963;SDS011;14521;48.148;-1.656;2022-08-19T17:50:17;5.28;;;1.05;;
26963;SDS011;14521;48.148;-1.656;2022-08-19T17:53:40;11.20;;;1.08;;
26963;SDS011;14521;48.148;-1.656;2022-08-19T17:57:03;3.38;;;0.70;;
26963;SDS011;14521;48.148;-1.656;2022-08-19T18:00:25;7.50;;;0.85;;
26963;SDS011;14521;48.148;-1.656;2022-08-19T18:03:49;8.07;;;1.10;;
26963;SDS011;14521;48.148;-1.656;2022-08-19T18:07:11;4.45;;;1.02;;
26963;SDS011;14521;48.148;-1.656;2022-08-19T18:10:33;5.65;;;0.85;;
26963;SDS011;14521;48.148;-1.656;2022-08-19T18:13:56;6.78;;;1.00;;
26963;SDS011;14521;48.148;-1.656;2022-08-19T18:17:18;7.35;;;1.58;;
26963;SDS011;14521;48.148;-1.656;2022-08-19T18:24:07;9.27;;;1.15;;
26963;SDS011;14521;48.148;-1.656;2022-08-19T18:27:29;6.85;;;1.17;;
26963;SDS011;14521;48.148;-1.656;2022-08-19T18:30:51;17.00;;;2.00;;
26963;SDS011;14521;48.148;-1.656;2022-08-19T18:34:14;8.20;;;1.90;;
26963;SDS011;14521;48.148;-1.656;2022-08-19T18:37:36;7.60;;;1.20;;
26963;SDS011;14521;48.148;-1.656;2022-08-19T18:41:00;1.90;;;0.88;;
26963;SDS011;14521;48.148;-1.656;2022-08-19T18:44:41;3.60;;;1.00;;
26963;SDS011;14521;48.148;-1.656;2022-08-19T18:48:22;3.88;;;0.77;;
26963;SDS011;14521;48.148;-1.656;2022-08-19T18:52:03;5.13;;;1.08;;
26963;SDS011;14521;48.148;-1.656;2022-08-19T18:55:25;8.00;;;0.90;;
26963;SDS011;14521;48.148;-1.656;2022-08-19T18:58:48;4.18;;;1.00;;
26963;SDS011;14521;48.148;-1.656;2022-08-19T19:02:11;3.15;;;1.08;;
26963;SDS011;14521;48.148;-1.656;2022-08-19T19:05:35;6.40;;;0.85;;
26963;SDS011;14521;48.148;-1.656;2022-08-19T19:09:00;12.43;;;1.63;;
26963;SDS011;14521;48.148;-1.656;2022-08-19T19:12:22;5.72;;;1.35;;
26963;SDS011;14521;48.148;-1.656;2022-08-19T19:15:49;4.18;;;1.17;;
26963;SDS011;14521;48.148;-1.656;2022-08-19T19:19:12;5.00;;;1.00;;
26963;SDS011;14521;48.148;-1.656;2022-08-19T19:22:40;7.72;;;1.10;;
26963;SDS011;14521;48.148;-1.656;2022-08-19T19:26:02;7.90;;;1.15;;
26963;SDS011;14521;48.148;-1.656;2022-08-19T19:29:24;7.55;;;1.25;;
26963;SDS011;14521;48.148;-1.656;2022-08-19T19:32:48;5.07;;;0.88;;
26963;SDS011;14521;48.148;-1.656;2022-08-19T19:39:34;6.50;;;1.15;;
26963;SDS011;14521;48.148;-1.656;2022-08-19T19:43:07;4.03;;;0.73;;
26963;SDS011;14521;48.148;-1.656;2022-08-19T19:46:30;6.05;;;1.05;;
26963;SDS011;14521;48.148;-1.656;2022-08-19T19:49:53;3.97;;;1.00;;
26963;SDS011;14521;48.148;-1.656;2022-08-19T19:53:36;7.22;;;0.70;;
26963;SDS011;14521;48.148;-1.656;2022-08-19T19:56:58;2.65;;;1.13;;
26963;SDS011;14521;48.148;-1.656;2022-08-19T20:00:20;2.50;;;1.15;;
26963;SDS011;14521;48.148;-1.656;2022-08-19T20:03:43;6.78;;;1.23;;
26963;SDS011;14521;48.148;-1.656;2022-08-19T20:07:06;3.78;;;1.08;;
26963;SDS011;14521;48.148;-1.656;2022-08-19T20:10:28;4.22;;;1.38;;
26963;SDS011;14521;48.148;-1.656;2022-08-19T20:13:52;3.38;;;0.77;;
26963;SDS011;14521;48.148;-1.656;2022-08-19T20:17:15;2.53;;;0.82;;
26963;SDS011;14521;48.148;-1.656;2022-08-19T20:20:37;3.15;;;0.73;;
26963;SDS011;14521;48.148;-1.656;2022-08-19T20:24:00;3.70;;;0.82;;
26963;SDS011;14521;48.148;-1.656;2022-08-19T20:27:30;4.00;;;0.70;;
26963;SDS011;14521;48.148;-1.656;2022-08-19T20:31:00;2.47;;;0.85;;
26963;SDS011;14521;48.148;-1.656;2022-08-19T20:34:26;3.28;;;0.85;;
26963;SDS011;14521;48.148;-1.656;2022-08-19T20:37:48;3.38;;;0.60;;
26963;SDS011;14521;48.148;-1.656;2022-08-19T20:41:18;2.38;;;0.90;;
26963;SDS011;14521;48.148;-1.656;2022-08-19T20:44:41;4.55;;;0.82;;
26963;SDS011;14521;48.148;-1.656;2022-08-19T20:48:05;3.13;;;0.88;;